Time;durP1;ratioP1;P1;durP2;ratioP2;P2;SDS_P1;SDS_P2;PMS_P1;PMS_P2;Temp;Humidity;BMP_temperature;BMP_pressure;BME280_temperature;BME280_humidity;BME280_pressure;Samples;Min_cycle;Max_cycle;Signal;HPM_P1;HPM_P2
2023/10/21 00:00:29;;;;;;;7.00;3.10;;;14.00;99.90;;;;;;5053112;28;20025;-82
2023/10/21 00:02:55;;;;;;;5.13;2.78;;;14.00;99.90;;;;;;5052677;28;20048;-81
2023/10/21 00:05:21;;;;;;;8.82;3.20;;;13.90;99.90;;;;;;5035789;28;20499;-80
2023/10/21 00:07:46;;;;;;;5.80;3.30;;;13.90;99.90;;;;;;5053225;28;20037;-82
2023/10/21 00:10:12;;;;;;;6.30;3.45;;;13.90;99.90;;;;;;5053106;28;20036;-83
2023/10/21 00:12:37;;;;;;;7.63;3.58;;;13.90;99.90;;;;;;5053392;28;20048;-83
2023/10/21 00:15:07;;;;;;;10.85;4.65;;;13.90;99.90;;;;;;5053681;28;20033;-80
2023/10/21 00:17:33;;;;;;;11.38;4.68;;;13.90;99.90;;;;;;5035401;28;20052;-83
2023/10/21 00:20:00;;;;;;;9.82;4.70;;;13.90;99.90;;;;;;5054336;28;20021;-83
2023/10/21 00:22:26;;;;;;;10.15;4.60;;;13.90;99.90;;;;;;5055004;28;20123;-83
2023/10/21 00:24:52;;;;;;;8.40;4.18;;;13.80;99.90;;;;;;5056732;28;20056;-83
2023/10/21 00:27:18;;;;;;;7.60;4.57;;;13.80;99.90;;;;;;5057433;28;20029;-83
2023/10/21 00:29:44;;;;;;;6.90;4.00;;;13.80;99.90;;;;;;5058138;28;20052;-82
2023/10/21 00:32:09;;;;;;;6.53;3.20;;;13.80;99.90;;;;;;5053531;28;20079;-82
2023/10/21 00:34:38;;;;;;;7.68;4.03;;;13.80;99.90;;;;;;5019705;28;20462;-81
2023/10/21 00:37:08;;;;;;;5.68;3.15;;;13.80;99.90;;;;;;5053623;28;20136;-82
2023/10/21 00:39:34;;;;;;;6.32;3.13;;;13.80;99.90;;;;;;5053454;28;20025;-82
2023/10/21 00:42:01;;;;;;;8.25;3.33;;;13.80;99.90;;;;;;5053554;28;20064;-82
2023/10/21 00:44:27;;;;;;;5.35;3.10;;;13.80;99.90;;;;;;5053253;28;20036;-82
2023/10/21 00:46:53;;;;;;;10.40;3.20;;;13.80;99.90;;;;;;5053355;28;20029;-81
2023/10/21 00:49:19;;;;;;;8.98;3.40;;;13.80;99.90;;;;;;5035187;28;20523;-82
2023/10/21 00:51:47;;;;;;;8.25;3.28;;;13.80;99.90;;;;;;5052369;28;20508;-82
2023/10/21 00:54:14;;;;;;;7.20;2.92;;;13.70;99.90;;;;;;5052798;28;20040;-83
2023/10/21 00:56:40;;;;;;;7.30;2.97;;;13.80;99.90;;;;;;5052772;28;20048;-82
2023/10/21 00:59:07;;;;;;;6.88;3.13;;;13.80;99.90;;;;;;5052393;28;20094;-82
2023/10/21 01:01:36;;;;;;;8.30;3.53;;;13.80;99.90;;;;;;5052462;28;20033;-82
2023/10/21 01:04:03;;;;;;;6.55;2.83;;;13.80;99.90;;;;;;5035508;28;20160;-82
2023/10/21 01:06:29;;;;;;;10.63;3.08;;;13.80;99.90;;;;;;5056271;28;20559;-82
2023/10/21 01:08:55;;;;;;;3.65;1.75;;;13.70;99.90;;;;;;5038594;28;20029;-82
2023/10/21 01:11:20;;;;;;;5.50;2.08;;;13.70;99.90;;;;;;5056149;28;20025;-82
2023/10/21 01:13:48;;;;;;;8.52;2.70;;;13.80;99.90;;;;;;5056865;28;20086;-81
2023/10/21 01:16:14;;;;;;;5.30;2.60;;;13.80;99.90;;;;;;5056426;28;20041;-81
2023/10/21 01:18:40;;;;;;;4.15;2.38;;;13.70;99.90;;;;;;5038071;28;20522;-80
2023/10/21 01:21:06;;;;;;;4.13;1.92;;;13.70;99.90;;;;;;5056040;28;20469;-80
2023/10/21 01:23:34;;;;;;;6.35;2.08;;;13.70;99.90;;;;;;5055892;28;20041;-80
2023/10/21 01:26:00;;;;;;;6.38;2.22;;;13.80;99.90;;;;;;5056037;28;20025;-80
2023/10/21 01:28:26;;;;;;;5.88;2.38;;;13.70;99.90;;;;;;5038002;28;20033;-80
2023/10/21 01:30:52;;;;;;;3.70;1.88;;;13.70;99.90;;;;;;5038013;28;20043;-80
2023/10/21 01:33:18;;;;;;;4.03;1.92;;;13.80;99.90;;;;;;5038322;28;20108;-80
2023/10/21 01:35:43;;;;;;;6.03;2.10;;;13.80;99.90;;;;;;5055690;28;20380;-80
2023/10/21 01:38:09;;;;;;;8.40;2.22;;;13.90;99.90;;;;;;5037761;28;20479;-80
2023/10/21 01:40:35;;;;;;;3.50;1.90;;;13.80;99.90;;;;;;5055273;28;20036;-79
2023/10/21 01:43:01;;;;;;;5.82;2.00;;;13.80;99.90;;;;;;5055540;28;20040;-80
2023/10/21 01:45:28;;;;;;;9.90;2.10;;;13.90;99.90;;;;;;5055460;28;20057;-80
2023/10/21 01:47:54;;;;;;;8.70;2.15;;;13.90;99.90;;;;;;5055683;28;20039;-81
2023/10/21 01:50:19;;;;;;;5.60;2.35;;;13.80;99.90;;;;;;5055355;28;20124;-82
2023/10/21 01:52:45;;;;;;;6.43;2.17;;;13.80;99.90;;;;;;5034139;28;20053;-82
2023/10/21 01:55:11;;;;;;;6.95;2.72;;;13.80;99.90;;;;;;5035713;28;20033;-81
2023/10/21 01:57:37;;;;;;;4.38;2.17;;;13.70;99.90;;;;;;5035465;28;20393;-82
2023/10/21 02:00:09;;;;;;;5.50;2.05;;;13.70;99.90;;;;;;5035373;28;20152;-82
2023/10/21 02:02:36;;;;;;;5.82;1.83;;;13.70;99.90;;;;;;5035032;28;20045;-82
2023/10/21 02:05:02;;;;;;;4.13;2.00;;;13.80;99.90;;;;;;5035486;28;20118;-82
2023/10/21 02:07:27;;;;;;;4.20;1.83;;;13.80;99.90;;;;;;5033943;28;20408;-82
2023/10/21 02:09:53;;;;;;;6.55;2.30;;;13.80;99.90;;;;;;5035396;28;20117;-81
2023/10/21 02:12:19;;;;;;;5.57;1.95;;;13.80;99.90;;;;;;5033969;28;20038;-82
2023/10/21 02:14:44;;;;;;;5.32;2.03;;;13.80;99.90;;;;;;5034091;28;20354;-81
2023/10/21 02:17:10;;;;;;;6.57;2.40;;;13.80;99.90;;;;;;5017976;28;20432;-80
2023/10/21 02:19:35;;;;;;;6.85;2.30;;;13.70;99.90;;;;;;5035228;28;20033;-80
2023/10/21 02:22:01;;;;;;;9.68;2.13;;;13.70;99.90;;;;;;5034997;28;20155;-81
2023/10/21 02:24:27;;;;;;;4.07;1.80;;;13.70;99.90;;;;;;5033885;28;20434;-81
2023/10/21 02:26:52;;;;;;;5.07;1.92;;;13.80;99.90;;;;;;5035050;28;20385;-81
2023/10/21 02:29:18;;;;;;;7.30;2.00;;;13.80;99.90;;;;;;5033690;28;20030;-81
2023/10/21 02:31:44;;;;;;;9.57;2.67;;;13.80;99.90;;;;;;5034077;28;20033;-81
2023/10/21 02:34:10;;;;;;;8.25;2.58;;;13.80;99.90;;;;;;5035209;28;20045;-81
2023/10/21 02:36:36;;;;;;;5.03;2.20;;;13.80;99.90;;;;;;5034524;28;20351;-80
2023/10/21 02:39:07;;;;;;;8.30;3.03;;;13.80;99.90;;;;;;5035094;28;20120;-80
2023/10/21 02:41:32;;;;;;;6.20;2.90;;;13.80;99.90;;;;;;5034473;28;20029;-79
2023/10/21 02:43:58;;;;;;;7.18;3.28;;;13.80;99.90;;;;;;5035420;28;20044;-79
2023/10/21 02:46:24;;;;;;;5.75;2.72;;;13.80;99.90;;;;;;5035164;28;20410;-80
2023/10/21 02:48:49;;;;;;;6.22;3.20;;;13.80;99.90;;;;;;5035077;28;20457;-81
2023/10/21 02:51:17;;;;;;;8.57;3.35;;;13.80;99.90;;;;;;5035452;28;20079;-81
2023/10/21 02:53:43;;;;;;;8.43;4.13;;;13.80;99.90;;;;;;5037097;28;20123;-80
2023/10/21 02:56:11;;;;;;;4.50;2.97;;;13.80;99.90;;;;;;5036646;28;20033;-80
2023/10/21 02:58:36;;;;;;;5.53;2.72;;;13.90;99.90;;;;;;5054539;28;20017;-80
2023/10/21 03:01:15;;;;;;;5.35;3.58;;;13.90;99.90;;;;;;5054481;28;20032;-80
2023/10/21 03:03:43;;;;;;;7.20;3.90;;;13.90;99.90;;;;;;5054405;28;20036;-80
2023/10/21 03:06:09;;;;;;;8.23;4.05;;;13.90;99.90;;;;;;5054105;28;20044;-80
2023/10/21 03:08:38;;;;;;;6.63;3.80;;;13.90;99.90;;;;;;5036966;28;20037;-80
2023/10/21 03:11:05;;;;;;;4.95;3.42;;;13.90;99.90;;;;;;5054470;28;20029;-81
2023/10/21 03:13:31;;;;;;;7.88;3.72;;;13.90;99.90;;;;;;5054290;28;20033;-79
2023/10/21 03:15:57;;;;;;;5.78;3.70;;;13.90;99.90;;;;;;5053616;28;20036;-80
2023/10/21 03:18:23;;;;;;;6.32;3.85;;;13.90;99.90;;;;;;5053980;28;20033;-80
2023/10/21 03:20:52;;;;;;;7.65;4.28;;;13.90;99.90;;;;;;5053721;28;20033;-79
2023/10/21 03:23:18;;;;;;;9.00;5.20;;;13.90;99.90;;;;;;5054232;28;20037;-80
2023/10/21 03:25:54;;;;;;;7.28;4.10;;;13.80;99.90;;;;;;5053501;28;20056;-79
2023/10/21 03:28:20;;;;;;;9.13;4.63;;;13.80;99.90;;;;;;5053279;28;20124;-79
2023/10/21 03:30:49;;;;;;;5.78;3.85;;;13.90;99.90;;;;;;5035540;28;20128;-80
2023/10/21 03:33:15;;;;;;;8.43;3.70;;;13.80;99.90;;;;;;5053630;28;20051;-79
2023/10/21 03:35:51;;;;;;;6.65;3.55;;;13.80;99.90;;;;;;5053681;28;20120;-79
2023/10/21 03:38:16;;;;;;;5.65;4.10;;;13.90;99.90;;;;;;5054069;28;20115;-79
2023/10/21 03:40:42;;;;;;;9.63;4.38;;;13.90;99.90;;;;;;5053257;28;20072;-79
2023/10/21 03:43:07;;;;;;;9.70;4.68;;;13.90;99.90;;;;;;5053331;28;20040;-79
2023/10/21 03:45:36;;;;;;;6.85;3.53;;;13.90;99.90;;;;;;5053136;28;20037;-79
2023/10/21 03:48:03;;;;;;;7.15;3.90;;;13.90;99.90;;;;;;5053414;28;20108;-79
2023/10/21 03:50:28;;;;;;;6.50;4.07;;;13.90;99.90;;;;;;5053525;28;20032;-79
2023/10/21 03:52:54;;;;;;;6.07;3.60;;;13.90;99.90;;;;;;5035147;28;20405;-79
2023/10/21 03:55:20;;;;;;;4.20;3.53;;;13.90;99.90;;;;;;5018907;28;20060;-79
2023/10/21 03:57:48;;;;;;;4.55;3.10;;;13.90;99.90;;;;;;5052899;28;20037;-79
2023/10/21 04:00:14;;;;;;;6.18;4.10;;;14.00;99.90;;;;;;5053697;28;20033;-79
2023/10/21 04:02:40;;;;;;;4.13;3.42;;;13.90;99.90;;;;;;5053211;28;20025;-78
2023/10/21 04:05:08;;;;;;;7.03;3.95;;;14.00;99.90;;;;;;5035534;28;20130;-79
2023/10/21 04:07:34;;;;;;;8.43;4.03;;;14.00;99.90;;;;;;5053025;28;20029;-78
2023/10/21 04:10:00;;;;;;;6.03;3.55;;;13.90;99.90;;;;;;5052693;28;20033;-78
2023/10/21 04:12:26;;;;;;;5.65;4.00;;;13.90;99.90;;;;;;5035088;28;20044;-79
2023/10/21 04:14:51;;;;;;;10.82;3.78;;;13.90;99.90;;;;;;5053273;28;20088;-79
2023/10/21 04:17:17;;;;;;;9.48;3.95;;;13.90;99.90;;;;;;5035186;28;20025;-78
2023/10/21 04:19:42;;;;;;;4.18;3.22;;;13.80;99.90;;;;;;5034886;28;20033;-80
2023/10/21 04:22:08;;;;;;;4.53;3.55;;;13.90;99.90;;;;;;5052499;28;20424;-79
2023/10/21 04:24:34;;;;;;;7.43;3.70;;;13.90;99.90;;;;;;5035476;28;20033;-79
2023/10/21 04:26:59;;;;;;;5.68;3.17;;;13.90;99.90;;;;;;5035115;28;20116;-79
2023/10/21 04:29:25;;;;;;;6.53;3.30;;;13.90;99.90;;;;;;5052860;28;20438;-79
2023/10/21 04:31:50;;;;;;;4.40;2.85;;;13.90;99.90;;;;;;5052610;28;20057;-79
2023/10/21 04:34:16;;;;;;;4.15;3.25;;;13.90;99.90;;;;;;5034737;28;20064;-78
2023/10/21 04:36:42;;;;;;;4.72;3.25;;;13.90;99.90;;;;;;5052661;28;20073;-81
2023/10/21 04:39:08;;;;;;;5.82;3.25;;;13.90;99.90;;;;;;5035210;28;20037;-82
2023/10/21 04:41:33;;;;;;;5.47;3.35;;;14.00;99.90;;;;;;5056679;28;20449;-81
2023/10/21 04:43:59;;;;;;;7.45;3.58;;;14.00;99.90;;;;;;5056643;28;20045;-80
2023/10/21 04:46:25;;;;;;;5.03;3.30;;;14.00;99.90;;;;;;5056407;28;20035;-82
2023/10/21 04:48:51;;;;;;;4.68;3.20;;;14.00;99.90;;;;;;5056630;28;20457;-82
2023/10/21 04:51:17;;;;;;;7.03;3.22;;;14.00;99.90;;;;;;5038882;28;20025;-83
2023/10/21 04:53:43;;;;;;;5.05;3.20;;;13.90;99.90;;;;;;5056659;28;20449;-81
2023/10/21 04:56:08;;;;;;;6.50;3.13;;;13.90;99.90;;;;;;5056806;28;20033;-82
2023/10/21 04:58:34;;;;;;;5.57;2.90;;;13.90;99.90;;;;;;5022776;28;20035;-83
2023/10/21 05:01:00;;;;;;;5.65;2.95;;;13.90;99.90;;;;;;5056912;28;20025;-81
2023/10/21 05:03:25;;;;;;;5.10;3.00;;;14.00;99.90;;;;;;5058699;28;20043;-80
2023/10/21 05:05:51;;;;;;;5.72;2.97;;;14.00;99.90;;;;;;5041729;28;20127;-82
2023/10/21 05:08:17;;;;;;;5.57;2.78;;;14.00;99.90;;;;;;5044751;28;20029;-82
2023/10/21 05:10:42;;;;;;;5.70;2.60;;;14.00;99.90;;;;;;5060020;28;20036;-82
2023/10/21 05:13:08;;;;;;;5.97;2.80;;;14.00;99.90;;;;;;5058330;28;20067;-81
2023/10/21 05:15:36;;;;;;;4.05;2.63;;;14.00;99.90;;;;;;5058014;28;20029;-81
2023/10/21 05:18:03;;;;;;;6.65;2.78;;;13.90;99.90;;;;;;5039666;28;20029;-82
2023/10/21 05:20:29;;;;;;;7.32;3.13;;;13.90;99.90;;;;;;5039283;28;20452;-82
2023/10/21 05:22:54;;;;;;;5.93;2.88;;;13.90;99.90;;;;;;5056197;28;20036;-82
2023/10/21 05:25:20;;;;;;;6.45;3.28;;;13.90;99.90;;;;;;5056352;28;20492;-82
2023/10/21 05:27:46;;;;;;;6.85;3.00;;;13.90;99.90;;;;;;5038249;28;20519;-82
2023/10/21 05:30:13;;;;;;;7.75;2.97;;;13.90;99.90;;;;;;5056093;28;20041;-81
2023/10/21 05:32:38;;;;;;;6.85;2.95;;;13.80;99.90;;;;;;5056357;28;20039;-82
2023/10/21 05:35:07;;;;;;;10.40;3.88;;;13.90;99.90;;;;;;5055674;28;20025;-81
2023/10/21 05:37:35;;;;;;;7.45;3.30;;;13.80;99.90;;;;;;5022121;28;20029;-80
2023/10/21 05:40:04;;;;;;;8.40;3.15;;;13.80;99.90;;;;;;5055847;28;20091;-81
2023/10/21 05:42:30;;;;;;;6.13;3.30;;;13.90;99.90;;;;;;5021904;28;20082;-83
2023/10/21 05:44:56;;;;;;;4.78;3.05;;;13.90;99.90;;;;;;5037610;28;20485;-82
2023/10/21 05:47:21;;;;;;;7.07;3.03;;;13.90;99.90;;;;;;5037565;28;20048;-83
2023/10/21 05:49:47;;;;;;;5.90;2.50;;;13.90;99.90;;;;;;5055235;28;20098;-83
2023/10/21 05:52:14;;;;;;;6.68;2.85;;;13.90;99.90;;;;;;5054860;28;20044;-80
2023/10/21 05:54:40;;;;;;;5.82;3.35;;;13.90;99.90;;;;;;5037428;28;20057;-80
2023/10/21 05:57:06;;;;;;;10.18;3.22;;;13.90;99.90;;;;;;5037004;28;20426;-80
2023/10/21 05:59:32;;;;;;;5.57;3.08;;;13.90;99.90;;;;;;5055377;28;20112;-78
2023/10/21 06:01:57;;;;;;;5.95;2.72;;;13.80;99.90;;;;;;5055223;28;20068;-78
2023/10/21 06:04:23;;;;;;;9.05;2.95;;;13.80;99.90;;;;;;5037415;28;20029;-77
2023/10/21 06:06:54;;;;;;;6.22;3.10;;;13.80;99.90;;;;;;5055691;28;20056;-78
2023/10/21 06:09:23;;;;;;;8.63;3.42;;;13.80;99.90;;;;;;5055083;28;20025;-79
2023/10/21 06:11:50;;;;;;;5.85;3.10;;;13.80;99.90;;;;;;5037250;28;20029;-76
2023/10/21 06:14:17;;;;;;;6.57;3.15;;;13.80;99.90;;;;;;5037560;28;20025;-78
2023/10/21 06:16:43;;;;;;;11.48;3.58;;;13.80;99.90;;;;;;5036868;28;20056;-77
2023/10/21 06:19:09;;;;;;;8.35;2.78;;;13.80;99.90;;;;;;5037584;28;20040;-82
2023/10/21 06:21:36;;;;;;;6.15;3.10;;;13.90;99.90;;;;;;5055158;28;20059;-82
2023/10/21 06:24:03;;;;;;;6.93;3.13;;;13.90;99.90;;;;;;5055259;28;20131;-82
2023/10/21 06:26:31;;;;;;;6.20;3.08;;;13.90;99.90;;;;;;5054631;28;20398;-82
2023/10/21 06:28:57;;;;;;;9.68;3.10;;;13.90;99.90;;;;;;5054970;28;20029;-81
2023/10/21 06:31:23;;;;;;;5.35;2.95;;;13.90;99.90;;;;;;5037103;28;20469;-83
2023/10/21 06:33:49;;;;;;;6.82;1.90;;;13.90;99.90;;;;;;5037502;28;20056;-80
2023/10/21 06:36:16;;;;;;;9.68;3.00;;;14.00;99.90;;;;;;5054998;28;20060;-81
2023/10/21 06:38:41;;;;;;;4.80;2.45;;;14.00;99.90;;;;;;5054510;28;20033;-81
2023/10/21 06:41:07;;;;;;;4.22;2.30;;;14.00;99.90;;;;;;5054559;28;20032;-80
2023/10/21 06:43:33;;;;;;;8.52;2.60;;;14.00;99.90;;;;;;5054175;28;20028;-80
2023/10/21 06:45:59;;;;;;;8.23;2.45;;;14.10;99.90;;;;;;5054385;28;20033;-81
2023/10/21 06:48:26;;;;;;;7.25;2.58;;;14.10;99.90;;;;;;5054090;28;20029;-80
2023/10/21 06:50:52;;;;;;;4.47;2.40;;;14.10;99.90;;;;;;5036261;28;20376;-80
2023/10/21 06:53:17;;;;;;;7.90;2.78;;;14.10;99.90;;;;;;5035898;28;20045;-80
2023/10/21 06:55:44;;;;;;;7.30;2.30;;;14.10;99.90;;;;;;5054000;28;20032;-80
2023/10/21 06:58:11;;;;;;;9.82;3.28;;;14.10;99.90;;;;;;5054234;28;20128;-80
2023/10/21 07:00:37;;;;;;;9.73;3.63;;;14.10;99.90;;;;;;5019601;28;20098;-80
2023/10/21 07:03:04;;;;;;;8.90;2.85;;;14.20;99.90;;;;;;5035095;28;20039;-78
2023/10/21 07:05:29;;;;;;;6.30;3.08;;;14.20;99.90;;;;;;5053952;28;20037;-77
2023/10/21 07:07:55;;;;;;;4.10;2.08;;;14.20;99.90;;;;;;5036105;28;20029;-79
2023/10/21 07:10:23;;;;;;;8.88;3.00;;;14.20;99.90;;;;;;5036347;28;20526;-77
2023/10/21 07:12:49;;;;;;;5.57;2.78;;;14.30;99.90;;;;;;5036370;28;20056;-80
2023/10/21 07:15:15;;;;;;;10.25;3.58;;;14.20;99.90;;;;;;5035628;28;20029;-74
2023/10/21 07:17:41;;;;;;;7.70;2.80;;;14.20;99.90;;;;;;5019345;28;20025;-75
2023/10/21 07:20:07;;;;;;;7.45;2.63;;;14.20;99.90;;;;;;5035653;28;20051;-76
2023/10/21 07:22:33;;;;;;;6.63;2.53;;;14.30;99.90;;;;;;5053505;28;20473;-75
2023/10/21 07:24:58;;;;;;;7.45;3.78;;;14.30;99.90;;;;;;5054868;28;20062;-75
2023/10/21 07:27:25;;;;;;;8.10;3.35;;;14.30;99.90;;;;;;5054272;28;20033;-76
2023/10/21 07:29:51;;;;;;;10.82;3.95;;;14.30;99.90;;;;;;5054463;28;20044;-76
2023/10/21 07:32:16;;;;;;;11.48;3.63;;;14.30;99.90;;;;;;5054069;28;20044;-77
2023/10/21 07:34:42;;;;;;;7.55;2.92;;;14.30;99.90;;;;;;5035799;28;20115;-76
2023/10/21 07:37:08;;;;;;;9.65;2.97;;;14.30;99.90;;;;;;5035876;28;20112;-76
2023/10/21 07:39:34;;;;;;;11.27;3.70;;;14.30;99.90;;;;;;5053418;28;20423;-76
2023/10/21 07:41:59;;;;;;;7.30;2.80;;;14.30;99.90;;;;;;5019455;28;20037;-76
2023/10/21 07:44:28;;;;;;;6.40;2.38;;;14.30;99.90;;;;;;5035037;28;20041;-76
2023/10/21 07:46:54;;;;;;;11.70;3.55;;;14.20;99.90;;;;;;5053149;28;20063;-76
2023/10/21 07:49:20;;;;;;;5.03;2.70;;;14.30;99.90;;;;;;5053329;28;20040;-76
2023/10/21 07:51:45;;;;;;;8.35;2.97;;;14.20;99.90;;;;;;5053007;28;20049;-76
2023/10/21 07:54:12;;;;;;;4.85;2.40;;;14.20;99.90;;;;;;5053063;28;20029;-76
2023/10/21 07:56:37;;;;;;;7.38;2.55;;;14.30;99.90;;;;;;5053472;28;20075;-76
2023/10/21 07:59:03;;;;;;;5.72;2.80;;;14.30;99.90;;;;;;5052856;28;20033;-78
2023/10/21 08:01:29;;;;;;;4.90;2.42;;;14.30;99.90;;;;;;5035030;28;20029;-76
2023/10/21 08:03:54;;;;;;;6.82;2.10;;;14.40;99.90;;;;;;5018912;28;20080;-76
2023/10/21 08:06:21;;;;;;;7.40;2.65;;;14.40;99.90;;;;;;5034969;28;20488;-77
2023/10/21 08:08:46;;;;;;;5.63;2.20;;;14.40;99.90;;;;;;5052806;28;20033;-76
2023/10/21 08:11:12;;;;;;;5.28;1.98;;;14.40;99.90;;;;;;5052808;28;20075;-78
2023/10/21 08:13:38;;;;;;;8.30;1.70;;;14.40;99.90;;;;;;5034907;28;20163;-77
2023/10/21 08:16:04;;;;;;;4.80;1.58;;;14.40;99.90;;;;;;5034668;28;20033;-77
2023/10/21 08:18:30;;;;;;;5.82;1.98;;;14.40;99.90;;;;;;5018335;28;20468;-76
2023/10/21 08:20:55;;;;;;;7.35;3.30;;;14.40;99.90;;;;;;5034568;28;20103;-77
2023/10/21 08:23:21;;;;;;;3.38;2.08;;;14.40;99.90;;;;;;5052362;28;20036;-75
2023/10/21 08:25:47;;;;;;;5.15;2.10;;;14.40;99.90;;;;;;5052841;28;20037;-76
2023/10/21 08:28:12;;;;;;;2.78;1.35;;;14.30;99.90;;;;;;5052349;28;20029;-76
2023/10/21 08:30:38;;;;;;;2.10;0.73;;;14.20;99.90;;;;;;5052600;28;20029;-77
2023/10/21 08:33:07;;;;;;;3.72;0.30;;;14.10;99.90;;;;;;5034705;28;20037;-77
2023/10/21 08:35:34;;;;;;;3.60;0.43;;;14.10;99.90;;;;;;5034829;28;20548;-78
2023/10/21 08:37:59;;;;;;;1.40;0.30;;;14.10;99.90;;;;;;5034641;28;20140;-76
2023/10/21 08:40:25;;;;;;;5.65;1.23;;;14.10;99.90;;;;;;5052556;28;20060;-82
2023/10/21 08:42:51;;;;;;;1.27;0.40;;;14.10;99.90;;;;;;5034542;28;20032;-76
2023/10/21 08:45:19;;;;;;;3.20;0.30;;;14.20;99.90;;;;;;5053060;28;20040;-84
2023/10/21 08:47:45;;;;;;;1.73;0.20;;;14.30;99.90;;;;;;5018284;28;20143;-78
2023/10/21 08:50:13;;;;;;;1.23;0.30;;;14.40;99.90;;;;;;5034704;28;20044;-82
2023/10/21 08:52:40;;;;;;;0.90;0.20;;;14.40;99.90;;;;;;5052305;28;20484;-80
2023/10/21 08:55:06;;;;;;;1.63;0.25;;;14.60;99.90;;;;;;5052821;28;20036;-80
2023/10/21 08:57:36;;;;;;;1.80;0.30;;;14.60;99.90;;;;;;5034332;28;20037;-79
2023/10/21 09:00:05;;;;;;;2.40;0.50;;;14.70;99.90;;;;;;5052349;28;20044;-77
2023/10/21 09:02:30;;;;;;;3.03;0.85;;;14.80;99.90;;;;;;5052062;28;20490;-78
2023/10/21 09:04:56;;;;;;;2.88;0.20;;;14.90;99.90;;;;;;5052652;28;20029;-80
2023/10/21 09:07:22;;;;;;;2.15;0.20;;;15.00;99.90;;;;;;5034608;28;20073;-79
2023/10/21 09:09:48;;;;;;;0.63;0.10;;;15.10;99.90;;;;;;5034481;28;20025;-79
2023/10/21 09:12:14;;;;;;;1.50;0.20;;;15.10;99.90;;;;;;5034706;28;20032;-78
2023/10/21 09:14:51;;;;;;;2.08;0.10;;;15.10;99.90;;;;;;5034949;28;20449;-77
2023/10/21 09:17:17;;;;;;;1.17;0.20;;;15.30;99.90;;;;;;5034382;28;20551;-78
2023/10/21 09:19:43;;;;;;;4.88;0.30;;;15.40;99.90;;;;;;5017927;28;20041;-80
2023/10/21 09:22:25;;;;;;;2.78;0.15;;;15.40;99.90;;;;;;5017844;28;20033;-80
2023/10/21 09:25:20;;;;;;;2.45;0.10;;;15.40;99.90;;;;;;5052523;28;20083;-80
2023/10/21 09:27:53;;;;;;;0.52;0.10;;;15.40;99.90;;;;;;5055788;28;20460;-80
2023/10/21 09:30:23;;;;;;;2.53;0.10;;;15.40;99.90;;;;;;5055819;28;20054;-78
2023/10/21 09:32:49;;;;;;;0.80;0.10;;;15.40;99.90;;;;;;5038069;28;20028;-79
2023/10/21 09:35:27;;;;;;;1.42;0.30;;;15.40;99.90;;;;;;5037801;28;20064;-80
2023/10/21 09:37:53;;;;;;;1.75;0.20;;;15.40;99.90;;;;;;5038843;28;20025;-75
2023/10/21 09:40:21;;;;;;;1.67;0.10;;;15.40;99.90;;;;;;5056446;28;20116;-81
2023/10/21 09:42:52;;;;;;;1.38;0.10;;;15.30;99.90;;;;;;5056938;28;20112;-81
2023/10/21 09:45:17;;;;;;;1.23;0.17;;;15.30;99.90;;;;;;5057824;28;20025;-82
2023/10/21 09:47:45;;;;;;;0.68;0.10;;;15.20;99.90;;;;;;5057101;28;20040;-81
2023/10/21 09:50:15;;;;;;;1.48;0.10;;;15.20;99.90;;;;;;5040086;28;20048;-82
2023/10/21 09:53:15;;;;;;;0.95;0.10;;;15.10;99.90;;;;;;5056664;28;20056;-82
2023/10/21 09:55:41;;;;;;;0.93;0.10;;;15.10;99.90;;;;;;5056038;28;20469;-84
2023/10/21 09:58:12;;;;;;;1.45;0.10;;;15.10;99.90;;;;;;5055739;28;20025;-83
2023/10/21 10:00:40;;;;;;;1.38;0.10;;;15.10;99.90;;;;;;5038120;28;20025;-82
2023/10/21 10:03:06;;;;;;;1.85;0.10;;;15.10;99.90;;;;;;5020838;28;20036;-81
2023/10/21 10:05:33;;;;;;;0.70;0.20;;;15.10;99.90;;;;;;5055518;28;20072;-82
2023/10/21 10:07:59;;;;;;;0.95;0.10;;;15.10;99.90;;;;;;5055349;28;20091;-82
2023/10/21 10:10:29;;;;;;;1.25;0.20;;;15.10;99.90;;;;;;5021535;28;20033;-80
2023/10/21 10:13:03;;;;;;;2.05;0.32;;;15.10;99.90;;;;;;5055151;28;20037;-82
2023/10/21 10:15:38;;;;;;;2.20;0.20;;;15.10;99.90;;;;;;5037637;28;20067;-82
2023/10/21 10:18:08;;;;;;;2.67;0.20;;;15.10;99.90;;;;;;5055299;28;20074;-81
2023/10/21 10:20:43;;;;;;;1.30;0.10;;;15.00;99.90;;;;;;5020739;28;20075;-82
2023/10/21 10:23:09;;;;;;;4.38;0.20;;;15.10;99.90;;;;;;5037591;28;20029;-80
2023/10/21 10:25:39;;;;;;;4.80;0.20;;;15.00;99.90;;;;;;5037220;28;20033;-82
2023/10/21 10:28:19;;;;;;;1.45;0.10;;;15.10;99.90;;;;;;5054591;28;20380;-83
2023/10/21 10:30:49;;;;;;;1.60;0.10;;;15.10;99.90;;;;;;5036946;28;20036;-83
2023/10/21 10:33:23;;;;;;;2.50;0.17;;;15.10;99.90;;;;;;5055030;28;20040;-82
2023/10/21 10:36:06;;;;;;;4.32;0.43;;;15.10;99.90;;;;;;5055026;28;20099;-83
2023/10/21 10:38:36;;;;;;;2.63;0.43;;;15.20;99.90;;;;;;5037027;28;20119;-81
2023/10/21 10:41:09;;;;;;;4.25;0.22;;;15.30;99.90;;;;;;5054593;28;20069;-82
2023/10/21 10:43:38;;;;;;;;;;;15.40;99.90;;;;;;5037006;28;20094;-83
2023/10/21 10:46:05;;;;;;;2.50;0.30;;;15.40;99.90;;;;;;5054833;28;20356;-84
2023/10/21 10:48:30;;;;;;;3.15;0.15;;;15.50;99.90;;;;;;5054587;28;20029;-83
2023/10/21 10:50:57;;;;;;;1.98;0.10;;;15.60;99.90;;;;;;5054485;28;20032;-81
2023/10/21 10:53:23;;;;;;;1.40;0.20;;;15.60;99.90;;;;;;5055077;28;20126;-84
2023/10/21 10:55:53;;;;;;;5.80;0.32;;;15.70;99.90;;;;;;5020598;28;20084;-82
2023/10/21 10:58:20;;;;;;;1.45;0.40;;;15.80;99.90;;;;;;5037434;28;20036;-82
2023/10/21 11:00:51;;;;;;;6.85;0.35;;;15.80;99.90;;;;;;5036700;28;20461;-81
2023/10/21 11:03:27;;;;;;;2.70;0.28;;;15.90;99.90;;;;;;5036732;28;20122;-81
2023/10/21 11:05:57;;;;;;;1.75;0.13;;;15.90;99.90;;;;;;5036133;28;20036;-82
2023/10/21 11:08:24;;;;;;;2.63;0.20;;;15.90;99.90;;;;;;5054543;28;20029;-81
2023/10/21 11:10:53;;;;;;;4.22;0.20;;;16.00;99.90;;;;;;5036010;28;20060;-82
2023/10/21 11:13:19;;;;;;;3.97;0.28;;;16.00;99.90;;;;;;5054015;28;20024;-83
2023/10/21 11:15:48;;;;;;;5.28;0.10;;;16.10;99.60;;;;;;5036084;28;20036;-81
2023/10/21 11:18:18;;;;;;;4.10;0.30;;;16.10;99.40;;;;;;5036333;28;20386;-81
2023/10/21 11:20:53;;;;;;;3.92;0.57;;;16.20;99.30;;;;;;5035775;28;20056;-81
2023/10/21 11:23:21;;;;;;;3.47;0.30;;;16.30;99.10;;;;;;5036458;28;20032;-82
2023/10/21 11:25:49;;;;;;;3.03;0.30;;;16.40;99.70;;;;;;5053479;28;20040;-83
2023/10/21 11:28:16;;;;;;;2.85;0.30;;;16.60;99.70;;;;;;5053688;28;20503;-82
2023/10/21 11:30:44;;;;;;;4.28;0.40;;;16.70;99.70;;;;;;5053652;28;20040;-82
2023/10/21 11:33:10;;;;;;;3.55;0.47;;;16.90;99.60;;;;;;5036252;28;20369;-82
2023/10/21 11:35:44;;;;;;;3.10;0.20;;;17.00;98.40;;;;;;5035753;28;20028;-82
2023/10/21 11:38:18;;;;;;;3.53;0.43;;;16.90;98.30;;;;;;5053798;28;20096;-83
2023/10/21 11:40:45;;;;;;;2.70;0.22;;;16.90;97.90;;;;;;5053413;28;20418;-83
2023/10/21 11:43:12;;;;;;;1.75;0.20;;;16.90;97.20;;;;;;5053202;28;20036;-83
2023/10/21 11:45:39;;;;;;;3.67;0.77;;;16.90;97.60;;;;;;5053013;28;20033;-86
2023/10/21 11:48:08;;;;;;;3.92;0.30;;;17.00;97.90;;;;;;5052905;28;20104;-84
2023/10/21 11:50:36;;;;;;;4.45;0.30;;;17.10;98.20;;;;;;5053507;28;20361;-83
2023/10/21 11:53:06;;;;;;;2.20;0.20;;;17.20;97.50;;;;;;5035322;28;20115;-80
2023/10/21 11:59:55;;;;;;;2.40;0.30;;;17.20;96.70;;;;;;5021970;28;20116;-81
2023/10/21 12:05:18;;;;;;;2.97;0.38;;;17.30;97.30;;;;;;5038324;28;20039;-78
2023/10/21 12:07:49;;;;;;;2.65;0.30;;;17.30;96.90;;;;;;5053335;28;20033;-78
2023/10/21 12:10:45;;;;;;;5.57;0.70;;;17.30;96.90;;;;;;5053588;28;20101;-78
2023/10/21 12:13:25;;;;;;;3.33;0.30;;;17.40;96.70;;;;;;5053773;28;20036;-77
2023/10/21 12:21:54;;;;;;;6.32;0.50;;;17.40;95.30;;;;;;5037922;28;20439;-78
2023/10/21 12:35:19;;;;;;;4.68;0.20;;;17.30;94.50;;;;;;5037274;28;20123;-82
2023/10/21 12:42:49;;;;;;;3.65;0.30;;;17.10;95.70;;;;;;5048022;28;20029;-81
2023/10/21 12:45:22;;;;;;;2.53;0.25;;;17.10;95.50;;;;;;5062400;28;20033;-83
2023/10/21 12:47:48;;;;;;;3.45;0.43;;;17.00;95.20;;;;;;5056015;28;20046;-80
2023/10/21 12:50:17;;;;;;;3.67;0.57;;;17.00;95.20;;;;;;5045038;28;20044;-80
2023/10/21 12:52:47;;;;;;;3.38;0.40;;;17.10;95.60;;;;;;5027486;28;20057;-81
2023/10/21 12:55:14;;;;;;;3.85;0.40;;;17.20;95.70;;;;;;5041388;28;20053;-82
2023/10/21 12:57:43;;;;;;;5.22;0.30;;;17.30;96.00;;;;;;5034816;28;20119;-83
2023/10/21 13:00:09;;;;;;;5.60;0.40;;;17.50;95.30;;;;;;5052515;28;20029;-81
2023/10/21 13:02:35;;;;;;;3.03;0.45;;;17.60;94.80;;;;;;5038396;28;20025;-84
2023/10/21 13:05:05;;;;;;;4.93;0.50;;;17.60;94.40;;;;;;5022306;28;20037;-82
2023/10/21 13:07:31;;;;;;;5.35;1.08;;;17.40;94.30;;;;;;5065593;28;20044;-78
2023/10/21 13:09:58;;;;;;;4.85;0.50;;;17.40;94.80;;;;;;5044913;28;20449;-79
2023/10/21 13:12:23;;;;;;;4.10;0.30;;;17.30;95.00;;;;;;5056410;28;20029;-79
2023/10/21 13:14:50;;;;;;;4.72;0.60;;;17.50;95.00;;;;;;5056814;28;20484;-80